createdAt,value
2023-09-03T00:01:12.935Z,18.62
2023-09-03T00:03:49.419Z,18.56
2023-09-03T00:06:17.507Z,18.51
2023-09-03T00:08:47.120Z,18.46
2023-09-03T00:11:17.715Z,18.40
2023-09-03T00:13:45.645Z,18.36
2023-09-03T00:16:13.992Z,18.33
2023-09-03T00:18:41.969Z,18.31
2023-09-03T00:21:10.130Z,18.28
2023-09-03T00:23:38.055Z,18.22
2023-09-03T00:26:06.160Z,18.17
2023-09-03T00:28:34.101Z,18.12
2023-09-03T00:31:03.078Z,18.08
2023-09-03T00:33:32.611Z,18.04
2023-09-03T00:36:02.444Z,17.99
2023-09-03T00:38:30.469Z,17.93
2023-09-03T00:40:58.589Z,17.88
2023-09-03T00:43:26.544Z,17.82
2023-09-03T00:45:54.843Z,17.78
2023-09-03T00:48:25.109Z,17.73
2023-09-03T00:50:53.904Z,17.69
2023-09-03T00:53:22.585Z,17.65
2023-09-03T00:55:51.124Z,17.63
2023-09-03T00:58:20.275Z,17.60
2023-09-03T01:00:50.790Z,17.58
2023-09-03T01:03:22.779Z,17.56
2023-09-03T01:05:52.309Z,17.57
2023-09-03T01:08:21.615Z,17.55
2023-09-03T01:11:07.588Z,17.53
2023-09-03T01:13:55.512Z,17.51
2023-09-03T01:16:28.168Z,17.46
2023-09-03T01:19:00.772Z,17.40
2023-09-03T01:21:36.424Z,17.35
2023-09-03T01:24:13.755Z,17.31
2023-09-03T01:26:44.973Z,17.29
2023-09-03T01:29:14.643Z,17.28
2023-09-03T01:31:44.431Z,17.27
2023-09-03T01:34:13.599Z,17.25
2023-09-03T01:36:41.762Z,17.26
2023-09-03T01:39:10.142Z,17.26
2023-09-03T01:41:39.510Z,17.27
2023-09-03T01:44:07.388Z,17.27
2023-09-03T01:46:49.528Z,17.26
2023-09-03T01:49:36.614Z,17.26
2023-09-03T01:52:11.049Z,17.27
2023-09-03T01:54:40.714Z,17.30
2023-09-03T01:57:11.591Z,17.31
2023-09-03T01:59:42.713Z,17.31
2023-09-03T02:02:12.280Z,17.32
2023-09-03T02:04:40.762Z,17.31
2023-09-03T02:07:09.121Z,17.28
2023-09-03T02:09:37.087Z,17.26
2023-09-03T02:12:07.193Z,17.24
2023-09-03T02:14:35.070Z,17.20
2023-09-03T02:17:03.024Z,17.16
2023-09-03T02:19:30.954Z,17.12
2023-09-03T02:21:58.820Z,17.07
2023-09-03T02:24:28.038Z,17.01
2023-09-03T02:26:56.171Z,16.96
2023-09-03T02:29:26.521Z,16.91
2023-09-03T02:31:54.645Z,16.88
2023-09-03T02:34:22.911Z,16.85
2023-09-03T02:36:51.179Z,16.83
2023-09-03T02:39:19.878Z,16.81
2023-09-03T02:41:48.230Z,16.80
2023-09-03T02:44:16.521Z,16.79
2023-09-03T02:46:44.816Z,16.77
2023-09-03T02:49:13.024Z,16.75
2023-09-03T02:51:42.620Z,16.74
2023-09-03T02:54:10.753Z,16.71
2023-09-03T02:56:39.071Z,16.68
2023-09-03T02:59:07.122Z,16.65
2023-09-03T03:01:35.726Z,16.62
2023-09-03T03:04:04.893Z,16.60
2023-09-03T03:06:33.070Z,16.57
2023-09-03T03:09:01.072Z,16.55
2023-09-03T03:11:29.933Z,16.53
2023-09-03T03:13:59.770Z,16.51
2023-09-03T03:16:31.763Z,16.49
2023-09-03T03:19:02.904Z,16.46
2023-09-03T03:21:32.057Z,16.42
2023-09-03T03:24:02.537Z,16.39
2023-09-03T03:26:35.593Z,16.37
2023-09-03T03:29:05.441Z,16.34
2023-09-03T03:31:37.131Z,16.32
2023-09-03T03:34:05.791Z,16.30
2023-09-03T03:36:34.715Z,16.30
2023-09-03T03:39:03.163Z,16.29
2023-09-03T03:41:31.366Z,16.28
2023-09-03T03:44:01.297Z,16.25
2023-09-03T03:46:30.252Z,16.22
2023-09-03T03:49:00.978Z,16.19
2023-09-03T03:51:31.649Z,16.17
2023-09-03T03:54:04.232Z,16.16
2023-09-03T03:56:32.652Z,16.16
2023-09-03T03:59:03.315Z,16.17
2023-09-03T04:01:31.563Z,16.18
2023-09-03T04:03:59.764Z,16.20
2023-09-03T04:06:29.259Z,16.23
2023-09-03T04:08:57.401Z,16.26
2023-09-03T04:11:25.890Z,16.30
2023-09-03T04:13:54.331Z,16.31
2023-09-03T04:16:23.639Z,16.33
2023-09-03T04:18:54.116Z,16.37
2023-09-03T04:21:22.200Z,16.46
2023-09-03T04:23:57.662Z,16.66
2023-09-03T04:26:25.822Z,16.85
2023-09-03T04:28:55.955Z,17.14
2023-09-03T04:31:24.789Z,17.46
2023-09-03T04:33:59.543Z,17.70
2023-09-03T04:36:39.693Z,17.98
2023-09-03T04:39:13.098Z,18.25
2023-09-03T04:41:55.225Z,18.66
2023-09-03T04:44:27.566Z,19.13
2023-09-03T04:47:00.977Z,19.63
2023-09-03T04:49:45.396Z,19.96
2023-09-03T04:56:00.393Z,20.64
2023-09-03T04:58:32.630Z,20.85
2023-09-03T05:01:06.683Z,21.12
2023-09-03T05:03:38.295Z,21.39
2023-09-03T05:06:17.156Z,21.57
2023-09-03T05:08:51.565Z,21.38
2023-09-03T05:11:28.166Z,20.99
2023-09-03T05:14:00.796Z,20.86
2023-09-03T05:16:32.303Z,20.87
2023-09-03T05:19:05.944Z,21.01
2023-09-03T05:21:37.982Z,21.24
2023-09-03T05:24:12.167Z,21.24
2023-09-03T05:26:40.711Z,20.96
2023-09-03T05:29:11.356Z,20.96
2023-09-03T05:31:40.132Z,21.09
2023-09-03T05:34:15.069Z,21.16
2023-09-03T05:36:53.146Z,21.28
2023-09-03T05:39:37.370Z,21.15
2023-09-03T05:42:09.472Z,21.08
2023-09-03T05:44:40.727Z,21.11
2023-09-03T05:47:09.416Z,21.08
2023-09-03T05:49:56.787Z,21.08
2023-09-03T05:52:27.825Z,21.01
2023-09-03T05:55:20.682Z,20.87
2023-09-03T05:58:10.523Z,20.75
2023-09-03T06:00:57.328Z,20.68
2023-09-03T06:03:28.867Z,20.63
2023-09-03T06:05:57.537Z,20.56
2023-09-03T06:08:29.310Z,20.46
2023-09-03T06:10:57.827Z,20.53
2023-09-03T06:13:27.100Z,20.70
2023-09-03T06:15:55.580Z,20.90
2023-09-03T06:18:24.866Z,21.09
2023-09-03T06:20:53.762Z,21.26
2023-09-03T06:23:24.530Z,21.29
2023-09-03T06:25:52.852Z,21.27
2023-09-03T06:28:21.164Z,21.36
2023-09-03T06:30:53.695Z,21.41
2023-09-03T06:33:21.880Z,21.42
2023-09-03T06:35:52.771Z,21.49
2023-09-03T06:38:20.970Z,21.65
2023-09-03T06:40:49.925Z,21.80
2023-09-03T06:43:20.553Z,21.85
2023-09-03T06:45:54.877Z,22.02
2023-09-03T06:48:24.136Z,22.30
2023-09-03T06:50:52.658Z,22.55
2023-09-03T06:53:20.717Z,22.73
2023-09-03T06:55:50.915Z,22.92
2023-09-03T06:58:19.450Z,23.08
2023-09-03T07:00:50.669Z,23.28
2023-09-03T07:03:19.957Z,23.52
2023-09-03T07:05:55.042Z,23.62
2023-09-03T07:08:23.477Z,23.51
2023-09-03T07:10:51.673Z,23.19
2023-09-03T07:13:20.099Z,22.76
2023-09-03T07:15:54.594Z,22.50
2023-09-03T07:18:23.142Z,22.46
2023-09-03T07:21:03.223Z,22.45
2023-09-03T07:23:44.188Z,22.38
2023-09-03T07:26:15.885Z,22.39
2023-09-03T07:28:46.566Z,22.40
2023-09-03T07:31:22.788Z,22.25
2023-09-03T07:33:50.813Z,21.95
2023-09-03T07:36:18.763Z,21.69
2023-09-03T07:38:46.687Z,21.44
2023-09-03T07:41:15.255Z,21.24
2023-09-03T07:43:44.523Z,21.26
2023-09-03T07:46:14.725Z,21.38
2023-09-03T07:48:44.078Z,21.36
2023-09-03T07:51:19.201Z,21.37
2023-09-03T07:53:50.833Z,21.35
2023-09-03T07:56:21.743Z,21.42
2023-09-03T07:58:53.123Z,21.67
2023-09-03T08:01:26.537Z,21.88
2023-09-03T08:03:54.924Z,22.15
2023-09-03T08:06:33.752Z,22.29
2023-09-03T08:09:07.356Z,22.16
2023-09-03T08:11:37.092Z,22.12
2023-09-03T08:14:06.270Z,22.05
2023-09-03T08:16:34.696Z,21.93
2023-09-03T08:19:02.683Z,21.95
2023-09-03T08:21:30.702Z,21.99
2023-09-03T08:24:01.697Z,22.15
2023-09-03T08:26:29.846Z,22.40
2023-09-03T08:29:16.455Z,22.59
2023-09-03T08:31:48.420Z,22.66
2023-09-03T08:34:29.374Z,22.57
2023-09-03T08:37:25.178Z,22.54
2023-09-03T08:39:58.035Z,22.57
2023-09-03T08:42:32.366Z,22.52
2023-09-03T08:45:04.653Z,22.56
2023-09-03T08:47:36.182Z,22.68
2023-09-03T08:50:06.151Z,22.79
2023-09-03T08:52:34.292Z,22.78
2023-09-03T08:55:04.714Z,22.80
2023-09-03T08:57:36.115Z,22.70
2023-09-03T09:00:07.962Z,22.55
2023-09-03T09:02:36.315Z,22.40
2023-09-03T09:05:06.318Z,22.16
2023-09-03T09:07:36.516Z,21.77
2023-09-03T09:10:09.699Z,21.37
2023-09-03T09:12:43.107Z,20.82
2023-09-03T09:15:11.381Z,20.29
2023-09-03T09:17:41.805Z,19.77
2023-09-03T09:20:18.240Z,19.35
2023-09-03T09:22:48.030Z,18.97
2023-09-03T09:25:35.565Z,18.65
2023-09-03T09:28:15.508Z,18.35
2023-09-03T09:30:57.308Z,18.08
2023-09-03T09:33:27.480Z,17.86
2023-09-03T09:36:09.889Z,17.69
2023-09-03T09:38:39.813Z,17.55
2023-09-03T09:41:23.871Z,17.45
2023-09-03T09:43:54.301Z,17.39
2023-09-03T09:46:28.896Z,17.34
2023-09-03T09:49:01.295Z,17.29
2023-09-03T09:51:29.960Z,17.25
2023-09-03T09:53:59.262Z,17.22
2023-09-03T09:56:30.808Z,17.20
2023-09-03T09:59:01.004Z,17.19
2023-09-03T10:01:42.218Z,17.20
2023-09-03T10:04:10.206Z,17.21
2023-09-03T10:06:40.685Z,17.20
2023-09-03T10:09:11.653Z,17.21
2023-09-03T10:11:40.136Z,17.21
2023-09-03T10:14:08.073Z,17.20
2023-09-03T10:16:36.249Z,17.19
2023-09-03T10:19:06.394Z,17.19
2023-09-03T10:21:53.148Z,17.20
2023-09-03T10:24:24.668Z,17.22
2023-09-03T10:27:06.203Z,17.25
2023-09-03T10:29:36.396Z,17.28
2023-09-03T10:32:07.499Z,17.32
2023-09-03T10:34:38.914Z,17.36
2023-09-03T10:37:07.812Z,17.42
2023-09-03T10:39:42.058Z,17.49
2023-09-03T10:42:18.977Z,17.58
2023-09-03T10:44:57.414Z,17.71
2023-09-03T10:47:25.636Z,17.86
2023-09-03T10:49:56.584Z,18.02
2023-09-03T10:52:27.258Z,18.21
2023-09-03T10:55:14.014Z,18.40
2023-09-03T10:57:42.618Z,18.65
2023-09-03T11:00:11.360Z,18.89
2023-09-03T11:02:39.490Z,19.08
2023-09-03T11:05:10.537Z,19.22
2023-09-03T11:07:39.352Z,19.42
2023-09-03T11:10:28.690Z,19.56
2023-09-03T11:12:57.104Z,19.64
2023-09-03T11:15:25.250Z,19.77
2023-09-03T11:17:56.834Z,19.99
2023-09-03T11:20:50.218Z,20.22
2023-09-03T11:23:21.710Z,20.44
2023-09-03T11:25:53.537Z,20.62
2023-09-03T11:28:21.274Z,20.78
2023-09-03T11:30:59.309Z,20.94
2023-09-03T11:33:27.987Z,20.93
2023-09-03T11:35:58.656Z,20.85
2023-09-03T11:38:27.463Z,20.93
2023-09-03T11:41:00.221Z,21.08
2023-09-03T11:43:32.545Z,21.24
2023-09-03T11:46:05.330Z,21.33
2023-09-03T11:48:36.428Z,21.58
2023-09-03T11:51:05.013Z,21.91
2023-09-03T11:53:42.663Z,22.13
2023-09-03T11:56:16.211Z,22.20
2023-09-03T11:58:45.489Z,22.15
2023-09-03T12:01:15.031Z,22.08
2023-09-03T12:03:43.324Z,22.07
2023-09-03T12:06:11.527Z,22.18
2023-09-03T12:08:39.391Z,22.31
2023-09-03T12:11:07.512Z,22.35
2023-09-03T12:13:36.826Z,22.41
2023-09-03T12:16:17.062Z,22.51
2023-09-03T12:18:58.943Z,22.65
2023-09-03T12:21:34.020Z,22.75
2023-09-03T12:24:04.811Z,22.69
2023-09-03T12:26:34.055Z,22.59
2023-09-03T12:29:04.685Z,22.56
2023-09-03T12:31:47.474Z,22.60
2023-09-03T12:34:16.809Z,22.65
2023-09-03T12:37:00.815Z,22.67
2023-09-03T12:39:38.146Z,22.66
2023-09-03T12:42:21.158Z,22.67
2023-09-03T12:44:57.802Z,22.67
2023-09-03T12:47:28.891Z,22.64
2023-09-03T12:49:57.895Z,22.58
2023-09-03T12:52:29.074Z,22.54
2023-09-03T12:54:56.939Z,22.56
2023-09-03T12:57:25.779Z,22.57
2023-09-03T12:59:54.019Z,22.54
2023-09-03T13:02:23.329Z,22.58
2023-09-03T13:04:51.365Z,22.70
2023-09-03T13:07:19.281Z,22.82
2023-09-03T13:09:47.214Z,22.91
2023-09-03T13:12:15.381Z,22.99
2023-09-03T13:14:43.186Z,23.06
2023-09-03T13:17:13.687Z,23.08
2023-09-03T13:19:43.863Z,22.94
2023-09-03T13:22:14.183Z,22.85
2023-09-03T13:24:42.500Z,22.81
2023-09-03T13:27:13.923Z,22.79
2023-09-03T13:29:42.045Z,22.79
2023-09-03T13:32:10.113Z,22.76
2023-09-03T13:34:39.464Z,22.74
2023-09-03T13:37:20.820Z,22.72
2023-09-03T13:39:52.674Z,22.66
2023-09-03T13:42:25.037Z,22.59
2023-09-03T13:44:56.609Z,22.50
2023-09-03T13:47:51.106Z,22.37
2023-09-03T13:53:09.156Z,22.08
2023-09-03T13:55:37.330Z,22.02
2023-09-03T13:58:05.799Z,21.96
2023-09-03T14:00:35.470Z,22.01
2023-09-03T14:03:04.216Z,22.09
2023-09-03T14:05:32.600Z,22.08
2023-09-03T14:08:00.901Z,22.03
2023-09-03T14:10:29.782Z,22.01
2023-09-03T14:12:58.227Z,22.07
2023-09-03T14:15:33.580Z,22.11
2023-09-03T14:18:01.628Z,22.12
2023-09-03T14:20:29.883Z,22.15
2023-09-03T14:23:00.522Z,22.11
2023-09-03T14:25:28.630Z,22.13
2023-09-03T14:27:58.382Z,22.25
2023-09-03T14:30:37.850Z,22.44
2023-09-03T14:33:06.444Z,22.66
2023-09-03T14:35:37.334Z,22.83
2023-09-03T14:38:05.244Z,22.96
2023-09-03T14:40:39.132Z,23.08
2023-09-03T14:43:12.713Z,23.29
2023-09-03T14:45:40.813Z,23.38
2023-09-03T14:48:08.686Z,23.32
2023-09-03T14:50:42.928Z,23.26
2023-09-03T14:53:10.960Z,23.33
2023-09-03T14:56:00.653Z,23.31
2023-09-03T14:58:30.464Z,23.13
2023-09-03T15:01:11.493Z,22.95
2023-09-03T15:03:39.820Z,22.67
2023-09-03T15:06:07.943Z,22.47
2023-09-03T15:08:37.212Z,22.33
2023-09-03T15:11:11.538Z,22.09
2023-09-03T15:13:49.601Z,21.84
2023-09-03T15:16:21.295Z,21.53
2023-09-03T15:19:06.388Z,20.31
2023-09-03T15:25:05.965Z,17.02
2023-09-03T15:27:51.298Z,16.26
2023-09-03T15:30:22.542Z,15.88
2023-09-03T15:33:16.273Z,15.63
2023-09-03T15:35:51.550Z,15.47
2023-09-03T15:38:22.187Z,15.36
2023-09-03T15:40:52.894Z,15.31
2023-09-03T15:43:22.801Z,15.26
2023-09-03T15:45:54.331Z,15.24
2023-09-03T15:48:25.756Z,15.20
2023-09-03T15:50:59.778Z,15.17
2023-09-03T15:53:32.624Z,15.15
2023-09-03T15:56:00.672Z,15.14
2023-09-03T15:58:32.028Z,15.16
2023-09-03T16:01:04.386Z,15.18
2023-09-03T16:03:40.269Z,15.20
2023-09-03T16:06:08.890Z,15.23
2023-09-03T16:08:36.902Z,15.25
2023-09-03T16:11:05.824Z,15.26
2023-09-03T16:13:37.866Z,15.30
2023-09-03T16:16:07.898Z,15.28
2023-09-03T16:18:37.717Z,15.30
2023-09-03T16:21:18.514Z,15.34
2023-09-03T16:23:49.824Z,15.38
2023-09-03T16:26:35.366Z,15.39
2023-09-03T16:29:03.299Z,15.38
2023-09-03T16:31:31.967Z,15.37
2023-09-03T16:34:04.133Z,15.33
2023-09-03T16:36:42.788Z,15.26
2023-09-03T16:39:13.445Z,15.25
2023-09-03T16:41:43.125Z,15.26
2023-09-03T16:44:17.909Z,15.26
2023-09-03T16:46:46.505Z,15.26
2023-09-03T16:49:14.654Z,15.27
2023-09-03T16:51:43.718Z,15.29
2023-09-03T16:54:17.447Z,15.32
2023-09-03T16:56:49.944Z,15.32
2023-09-03T16:59:18.576Z,15.29
2023-09-03T17:02:37.439Z,15.27
2023-09-03T17:05:39.564Z,15.28
2023-09-03T17:08:36.207Z,15.26
2023-09-03T17:11:05.655Z,15.26
2023-09-03T17:13:36.702Z,15.25
2023-09-03T17:17:19.265Z,15.24
2023-09-03T17:21:33.833Z,15.26
2023-09-03T17:28:01.206Z,15.27
2023-09-03T17:30:53.942Z,15.24
2023-09-03T17:40:52.560Z,15.20
2023-09-03T17:45:24.510Z,15.20
2023-09-03T17:55:13.471Z,15.20
2023-09-03T18:01:32.276Z,15.13
2023-09-03T18:08:15.008Z,15.09
2023-09-03T18:15:32.983Z,15.20
2023-09-03T18:27:20.563Z,15.12
2023-09-03T18:41:40.969Z,14.79
2023-09-03T18:44:32.122Z,14.74
2023-09-03T18:47:10.945Z,14.68
2023-09-03T18:53:37.980Z,14.58
2023-09-03T18:56:55.104Z,14.53
2023-09-03T19:12:01.246Z,14.35
2023-09-03T19:15:16.304Z,14.34
2023-09-03T19:17:55.571Z,14.31
2023-09-03T19:23:34.536Z,14.28
2023-09-03T19:26:05.168Z,14.27
2023-09-03T19:28:34.105Z,14.23
2023-09-03T19:31:05.746Z,14.21
2023-09-03T19:33:34.903Z,14.19
2023-09-03T19:36:04.362Z,14.17
2023-09-03T19:38:42.518Z,14.15
2023-09-03T19:41:10.666Z,14.14
2023-09-03T19:43:40.870Z,14.12
2023-09-03T19:46:08.823Z,14.07
2023-09-03T19:48:41.274Z,14.04
2023-09-03T19:51:12.718Z,14.02
2023-09-03T19:53:45.454Z,13.99
2023-09-03T19:56:22.274Z,13.98
2023-09-03T19:59:03.798Z,13.97
2023-09-03T20:05:20.191Z,13.97
2023-09-03T20:08:10.273Z,14.00
2023-09-03T20:10:47.299Z,14.04
2023-09-03T20:13:50.405Z,14.09
2023-09-03T20:16:43.000Z,14.13
2023-09-03T20:19:21.802Z,14.19
2023-09-03T20:25:10.696Z,14.17
2023-09-03T20:27:42.324Z,14.13
2023-09-03T20:30:16.325Z,14.11
2023-09-03T20:32:47.585Z,14.09
2023-09-03T20:35:20.813Z,14.08
2023-09-03T20:37:59.693Z,14.06
2023-09-03T20:40:37.919Z,14.05
2023-09-03T20:43:11.085Z,14.05
2023-09-03T20:45:46.301Z,14.03
2023-09-03T20:48:14.616Z,14.00
2023-09-03T20:50:48.952Z,13.97
2023-09-03T20:53:27.926Z,13.94
2023-09-03T20:56:01.157Z,13.92
2023-09-03T20:58:51.490Z,13.90
2023-09-03T21:01:25.570Z,13.88
2023-09-03T21:07:59.736Z,13.91
2023-09-03T21:10:58.321Z,13.91
2023-09-03T21:13:36.930Z,13.88
2023-09-03T21:16:08.569Z,13.88
2023-09-03T21:18:39.387Z,13.86
2023-09-03T21:21:20.151Z,13.84
2023-09-03T21:23:49.793Z,13.84
2023-09-03T21:26:20.359Z,13.84
2023-09-03T21:28:53.088Z,13.82
2023-09-03T21:31:23.996Z,13.81
2023-09-03T21:34:02.415Z,13.79
2023-09-03T21:36:45.640Z,13.79
2023-09-03T21:39:14.121Z,13.78
2023-09-03T21:41:44.776Z,13.79
2023-09-03T21:44:48.038Z,13.81
2023-09-03T21:47:41.248Z,13.84
2023-09-03T21:50:11.261Z,13.87
2023-09-03T21:52:44.657Z,13.90
2023-09-03T21:55:15.757Z,13.93
2023-09-03T21:57:44.121Z,13.96
2023-09-03T22:00:13.406Z,13.99
2023-09-03T22:02:43.737Z,14.02
2023-09-03T22:05:14.675Z,14.02
2023-09-03T22:07:45.185Z,14.03
2023-09-03T22:10:22.985Z,14.07
2023-09-03T22:13:04.955Z,14.06
2023-09-03T22:15:33.117Z,14.02
2023-09-03T22:18:05.511Z,13.98
2023-09-03T22:20:42.172Z,13.93
2023-09-03T22:23:12.407Z,13.88
2023-09-03T22:25:56.630Z,13.86
2023-09-03T22:28:28.137Z,13.82
2023-09-03T22:30:56.472Z,13.79
2023-09-03T22:33:24.741Z,13.76
2023-09-03T22:35:54.331Z,13.72
2023-09-03T22:38:33.652Z,13.70
2023-09-03T22:41:04.915Z,13.68
2023-09-03T22:43:40.896Z,13.65
2023-09-03T22:46:09.482Z,13.60
2023-09-03T22:48:37.510Z,13.57
2023-09-03T22:51:07.090Z,13.55
2023-09-03T22:56:45.960Z,13.57
2023-09-03T22:59:13.972Z,13.56
2023-09-03T23:01:42.226Z,13.52
2023-09-03T23:04:11.214Z,13.49
2023-09-03T23:06:39.538Z,13.47
2023-09-03T23:09:07.725Z,13.44
2023-09-03T23:11:36.569Z,13.43
2023-09-03T23:14:05.015Z,13.41
2023-09-03T23:16:40.363Z,13.38
2023-09-03T23:19:11.555Z,13.36
2023-09-03T23:24:39.033Z,13.31
2023-09-03T23:27:07.210Z,13.29
2023-09-03T23:29:35.498Z,13.26
2023-09-03T23:32:03.593Z,13.24
2023-09-03T23:34:32.738Z,13.23
2023-09-03T23:37:00.807Z,13.25
2023-09-03T23:39:29.027Z,13.24
2023-09-03T23:41:59.882Z,13.23
2023-09-03T23:44:28.128Z,13.21
2023-09-03T23:47:06.828Z,13.18
2023-09-03T23:49:44.377Z,13.17
2023-09-03T23:52:12.522Z,13.16
2023-09-03T23:54:40.720Z,13.15
2023-09-03T23:57:08.953Z,13.13
2023-09-03T23:59:36.915Z,13.12
